Time;durP1;ratioP1;P1;durP2;ratioP2;P2;SDS_P1;SDS_P2;PMS_P1;PMS_P2;Temp;Humidity;BMP_temperature;BMP_pressure;BME280_temperature;BME280_humidity;BME280_pressure;Samples;Min_cycle;Max_cycle;Signal;HPM_P1;HPM_P2
2024/01/19 00:00:25;;;;;;;2.20;1.50;;;;;;;6.59;95.52;93937.91;106820;1274;24254;-82
2024/01/19 00:03:13;;;;;;;2.00;1.50;;;;;;;6.73;95.73;93936.95;106711;1274;22610;-80
2024/01/19 00:05:41;;;;;;;2.10;1.50;;;;;;;6.83;95.58;93945.55;106703;1274;24880;-81
2024/01/19 00:08:10;;;;;;;2.10;1.50;;;;;;;6.88;95.45;93952.75;106707;1251;25505;-81
2024/01/19 00:10:38;;;;;;;3.10;2.10;;;;;;;6.90;95.33;93952.70;106772;1274;22523;-82
2024/01/19 00:13:07;;;;;;;3.40;1.80;;;;;;;6.92;95.53;93952.09;106719;1274;24259;-81
2024/01/19 00:15:36;;;;;;;4.80;2.30;;;;;;;6.95;95.37;93959.38;106697;1274;24289;-81
2024/01/19 00:18:10;;;;;;;3.60;1.60;;;;;;;6.94;95.07;93968.48;106888;1274;25352;-81
2024/01/19 00:20:39;;;;;;;1.90;1.40;;;;;;;6.89;94.63;93974.04;106771;1274;22482;-81
2024/01/19 00:23:08;;;;;;;2.30;1.60;;;;;;;6.85;94.68;93980.11;106678;1274;25574;-81
2024/01/19 00:25:37;;;;;;;3.50;2.00;;;;;;;6.76;94.11;93981.27;106638;1274;24254;-81
2024/01/19 00:28:06;;;;;;;2.20;1.40;;;;;;;6.69;94.37;93992.98;106727;1274;25348;-81
2024/01/19 00:30:34;;;;;;;1.90;1.30;;;;;;;6.56;93.65;93985.86;106657;1274;22549;-81
2024/01/19 00:33:02;;;;;;;1.60;1.00;;;;;;;6.44;93.69;93985.84;106645;1274;25386;-81
2024/01/19 00:35:30;;;;;;;1.30;0.90;;;;;;;6.32;93.74;93992.48;106695;1274;22536;-81
2024/01/19 00:37:59;;;;;;;0.80;0.80;;;;;;;6.27;94.42;93997.33;106647;1274;23138;-81
2024/01/19 00:40:27;;;;;;;0.70;0.60;;;;;;;6.22;94.35;94002.02;106677;1274;24219;-81
2024/01/19 00:42:55;;;;;;;0.80;0.70;;;;;;;6.14;94.38;94002.75;106739;1274;25344;-81
2024/01/19 00:45:23;;;;;;;3.40;0.70;;;;;;;6.12;94.73;94002.62;106744;1274;24379;-81
2024/01/19 00:47:52;;;;;;;2.00;0.50;;;;;;;6.04;94.00;94003.72;106841;1274;22523;-81
2024/01/19 00:50:20;;;;;;;3.40;0.50;;;;;;;5.92;93.65;94007.34;106746;1274;22641;-81
2024/01/19 00:52:48;;;;;;;3.80;0.40;;;;;;;5.80;93.61;94005.87;106711;1274;25329;-81
2024/01/19 00:55:16;;;;;;;0.50;0.40;;;;;;;5.75;94.12;94002.50;106640;1274;24234;-81
2024/01/19 00:57:44;;;;;;;0.90;0.40;;;;;;;5.73;94.42;94005.18;106809;1274;22602;-81
2024/01/19 01:00:13;;;;;;;0.50;0.40;;;;;;;5.72;94.43;94008.53;106831;1274;23902;-81
2024/01/19 01:02:41;;;;;;;0.80;0.50;;;;;;;5.73;94.86;94011.10;106767;1274;25412;-81
2024/01/19 01:05:09;;;;;;;2.10;0.50;;;;;;;5.68;94.13;94009.84;106744;1273;22531;-81
2024/01/19 01:07:39;;;;;;;0.70;0.50;;;;;;;5.58;93.92;94008.00;106696;1274;25450;-81
2024/01/19 01:10:08;;;;;;;0.30;0.30;;;;;;;5.54;94.65;94005.46;106743;1274;22514;-81
2024/01/19 01:12:37;;;;;;;0.50;0.40;;;;;;;5.57;95.10;94007.52;106717;1274;22635;-81
2024/01/19 01:15:05;;;;;;;1.00;0.80;;;;;;;5.59;94.98;94008.51;106723;1274;25471;-81
2024/01/19 01:17:33;;;;;;;1.30;0.40;;;;;;;5.58;95.06;94009.55;106728;1274;25294;-81
2024/01/19 01:20:03;;;;;;;0.90;0.50;;;;;;;5.58;95.13;94008.00;106776;1274;22527;-81
2024/01/19 01:22:32;;;;;;;1.80;0.40;;;;;;;5.58;95.09;94004.17;106690;1274;22934;-81
2024/01/19 01:25:00;;;;;;;2.60;0.40;;;;;;;5.54;94.96;94004.42;106811;1274;22524;-81
2024/01/19 01:27:29;;;;;;;0.80;0.50;;;;;;;5.53;94.94;94003.77;106705;1274;22587;-81
2024/01/19 01:29:57;;;;;;;0.80;0.50;;;;;;;5.47;94.72;94012.13;106736;1264;22524;-81
2024/01/19 01:32:25;;;;;;;1.00;0.50;;;;;;;5.47;95.11;94015.26;106775;1274;22604;-81
2024/01/19 01:34:54;;;;;;;0.70;0.20;;;;;;;5.47;95.24;94017.16;106740;1274;22533;-81
2024/01/19 01:37:22;;;;;;;1.80;0.60;;;;;;;5.45;95.03;94021.21;106679;1274;22632;-81
2024/01/19 01:39:50;;;;;;;0.30;0.20;;;;;;;5.48;95.23;94017.51;106736;1274;26109;-81
2024/01/19 01:42:18;;;;;;;0.30;0.30;;;;;;;5.42;94.81;94015.18;106751;1274;25493;-81
2024/01/19 01:44:46;;;;;;;0.70;0.60;;;;;;;5.43;95.11;94008.87;106807;1274;25491;-81
2024/01/19 01:47:16;;;;;;;11.10;8.20;;;;;;;5.43;95.27;94000.85;106763;1271;22702;-81
2024/01/19 01:49:44;;;;;;;19.40;12.70;;;;;;;5.44;95.37;93998.59;106772;1274;22553;-81
2024/01/19 01:52:13;;;;;;;1.10;0.50;;;;;;;5.43;95.40;93997.54;106847;1274;22535;-81
2024/01/19 01:54:41;;;;;;;1.20;0.80;;;;;;;5.45;95.32;93994.02;106751;1262;22961;-81
2024/01/19 01:57:10;;;;;;;0.80;0.50;;;;;;;5.41;95.02;93993.95;106866;1274;22694;-81
2024/01/19 01:59:39;;;;;;;4.60;2.40;;;;;;;5.43;95.50;93990.91;106861;1274;24232;-81
2024/01/19 02:02:07;;;;;;;6.30;3.50;;;;;;;5.44;95.24;93992.66;106841;1274;24218;-81
2024/01/19 02:04:36;;;;;;;2.20;0.90;;;;;;;5.37;94.68;93994.04;106666;1274;25470;-81
2024/01/19 02:07:04;;;;;;;2.30;0.50;;;;;;;5.38;95.45;93995.77;106741;1274;24382;-82
2024/01/19 02:09:33;;;;;;;1.10;0.50;;;;;;;5.41;95.74;93998.64;106715;1274;25373;-81
2024/01/19 02:12:02;;;;;;;2.10;0.40;;;;;;;5.38;95.33;94001.52;106724;1274;22674;-82
2024/01/19 02:14:30;;;;;;;0.90;0.50;;;;;;;5.30;94.72;94003.46;106799;1274;23920;-81
2024/01/19 02:17:00;;;;;;;1.70;0.80;;;;;;;5.18;94.52;94004.95;106713;1274;22549;-81
2024/01/19 02:19:28;;;;;;;3.00;0.60;;;;;;;5.16;95.24;94009.53;106796;1274;24318;-81
2024/01/19 02:21:57;;;;;;;0.80;0.50;;;;;;;5.11;94.82;94017.14;106658;1274;25249;-82
2024/01/19 02:24:26;;;;;;;1.10;0.40;;;;;;;5.09;95.11;94020.84;106709;1274;24157;-81
2024/01/19 02:26:56;;;;;;;2.50;0.50;;;;;;;5.08;95.34;94022.26;106721;1274;22516;-81
2024/01/19 02:29:24;;;;;;;2.40;0.30;;;;;;;5.04;95.02;94022.01;106707;1274;22644;-81
2024/01/19 02:31:52;;;;;;;0.40;0.20;;;;;;;4.98;94.68;94028.08;106771;1274;24262;-81
2024/01/19 02:34:22;;;;;;;2.50;0.30;;;;;;;4.89;94.27;94031.06;106742;1274;23279;-81
2024/01/19 02:36:50;;;;;;;1.90;0.40;;;;;;;4.83;94.47;94036.07;106782;1274;25448;-81
2024/01/19 02:39:19;;;;;;;0.40;0.20;;;;;;;4.74;94.10;94035.55;106758;1274;24386;-81
2024/01/19 02:41:47;;;;;;;0.40;0.30;;;;;;;4.70;94.36;94033.91;106688;1274;22548;-81
2024/01/19 02:44:16;;;;;;;1.30;0.70;;;;;;;4.70;94.61;94031.98;106747;1274;22636;-81
2024/01/19 02:46:44;;;;;;;0.30;0.20;;;;;;;4.70;94.85;94025.54;106743;1274;24396;-81
2024/01/19 02:49:12;;;;;;;0.90;0.20;;;;;;;4.60;93.89;94029.06;106719;1274;24404;-81
2024/01/19 02:51:40;;;;;;;1.90;1.00;;;;;;;4.51;94.16;94026.62;106761;1274;22744;-81
2024/01/19 02:54:09;;;;;;;2.10;1.30;;;;;;;4.51;94.83;94021.92;106847;1274;24282;-81
2024/01/19 02:56:37;;;;;;;4.70;1.60;;;;;;;4.50;94.91;94027.88;106726;1274;22650;-81
2024/01/19 02:59:05;;;;;;;2.90;1.00;;;;;;;4.51;95.14;94023.14;106840;1274;22563;-81
2024/01/19 03:01:33;;;;;;;1.00;0.70;;;;;;;4.53;95.30;94023.80;106922;1274;22639;-81
2024/01/19 03:04:03;;;;;;;0.50;0.50;;;;;;;4.55;95.47;94028.30;106641;1274;25422;-81
2024/01/19 03:06:31;;;;;;;1.20;0.60;;;;;;;4.55;95.33;94027.77;106775;1274;22980;-81
2024/01/19 03:08:59;;;;;;;0.70;0.70;;;;;;;4.52;95.09;94027.48;106753;1274;22527;-81
2024/01/19 03:11:28;;;;;;;1.40;0.50;;;;;;;4.51;95.42;94025.23;106692;1274;24966;-81
2024/01/19 03:13:56;;;;;;;11.00;5.80;;;;;;;4.51;95.41;94022.29;106874;1274;22635;-81
2024/01/19 03:16:24;;;;;;;14.10;10.00;;;;;;;4.52;95.72;94021.73;106610;1274;25314;-81
2024/01/19 03:19:00;;;;;;;1.30;0.50;;;;;;;4.48;95.07;94025.82;106714;1274;22534;-81
2024/01/19 03:21:28;;;;;;;2.90;0.70;;;;;;;4.40;95.02;94026.33;106713;1274;23918;-81
2024/01/19 03:23:57;;;;;;;0.50;0.50;;;;;;;4.35;95.16;94020.88;106755;1274;25223;-80
2024/01/19 03:26:25;;;;;;;0.80;0.40;;;;;;;4.29;95.04;94023.77;106757;1274;22514;-81
2024/01/19 03:28:53;;;;;;;0.60;0.50;;;;;;;4.28;95.32;94027.27;106778;1274;25362;-81
2024/01/19 03:31:21;;;;;;;2.40;0.70;;;;;;;4.31;95.60;94027.57;106735;1274;25295;-81
2024/01/19 03:33:50;;;;;;;4.60;0.50;;;;;;;4.34;95.66;94027.68;106739;1274;24373;-81
2024/01/19 03:36:18;;;;;;;1.80;0.40;;;;;;;4.32;95.38;94033.63;106744;1272;22535;-81
2024/01/19 03:38:46;;;;;;;0.50;0.40;;;;;;;4.29;95.22;94036.83;106704;1274;24370;-81
2024/01/19 03:41:14;;;;;;;2.50;0.70;;;;;;;4.27;95.16;94042.09;106737;1274;22531;-81
2024/01/19 03:43:44;;;;;;;8.20;0.70;;;;;;;4.25;95.41;94044.55;106775;1274;24232;-81
2024/01/19 03:46:12;;;;;;;3.90;0.80;;;;;;;4.30;95.93;94044.63;106901;1274;22531;-81
2024/01/19 03:48:40;;;;;;;0.80;0.40;;;;;;;4.38;96.22;94056.48;106747;1274;24285;-81
2024/01/19 03:51:08;;;;;;;0.70;0.50;;;;;;;4.48;96.41;94063.42;106802;1274;24397;-81
2024/01/19 03:53:37;;;;;;;1.90;0.70;;;;;;;4.47;95.53;94066.93;106756;1274;25262;-81
2024/01/19 03:56:05;;;;;;;8.70;6.10;;;;;;;4.46;95.59;94074.27;106739;1259;24456;-81
2024/01/19 03:58:33;;;;;;;7.30;4.10;;;;;;;4.55;96.39;94076.36;106768;1274;24880;-81
2024/01/19 04:01:03;;;;;;;47.10;23.40;;;;;;;4.56;95.64;94078.60;106763;1274;25291;-81
2024/01/19 04:03:31;;;;;;;58.40;29.60;;;;;;;4.61;96.41;94078.68;106778;1274;25426;-81
2024/01/19 04:06:03;;;;;;;21.10;11.30;;;;;;;4.71;96.84;94084.55;106665;1274;23772;-81
2024/01/19 04:08:31;;;;;;;5.40;3.30;;;;;;;4.73;96.02;94082.79;106766;1274;22612;-81
2024/01/19 04:10:59;;;;;;;5.10;2.90;;;;;;;4.65;94.77;94080.70;106754;1274;22530;-81
2024/01/19 04:13:28;;;;;;;12.70;7.30;;;;;;;4.60;94.62;94079.57;106731;1274;22571;-80
2024/01/19 04:15:56;;;;;;;15.90;9.10;;;;;;;4.57;94.88;94078.92;106652;1270;24294;-80
2024/01/19 04:18:24;;;;;;;21.20;13.10;;;;;;;4.56;95.18;94079.64;106753;1262;24345;-80
2024/01/19 04:20:53;;;;;;;32.60;22.80;;;;;;;4.62;95.71;94078.65;106834;1274;23832;-80
2024/01/19 04:23:21;;;;;;;15.40;8.70;;;;;;;4.62;95.39;94086.67;106595;1274;25720;-80
2024/01/19 04:25:49;;;;;;;26.50;16.40;;;;;;;4.62;95.19;94087.73;106745;1274;24240;-80
2024/01/19 04:28:17;;;;;;;1.40;0.90;;;;;;;4.58;95.31;94089.71;106696;1274;24266;-80
2024/01/19 04:30:46;;;;;;;2.20;1.60;;;;;;;4.57;95.03;94088.67;106773;1274;22680;-81
2024/01/19 04:33:14;;;;;;;1.80;1.30;;;;;;;4.58;95.30;94092.33;106763;1274;22526;-81
2024/01/19 04:35:42;;;;;;;4.70;1.20;;;;;;;4.56;95.04;94099.67;106700;1274;22547;-81
2024/01/19 04:38:10;;;;;;;2.20;1.30;;;;;;;4.53;94.90;94100.61;106608;1274;22539;-81
2024/01/19 04:40:38;;;;;;;6.90;1.60;;;;;;;4.51;94.94;94104.45;106782;1274;24076;-81
2024/01/19 04:43:07;;;;;;;5.40;3.80;;;;;;;4.52;95.12;94105.31;106692;1274;22651;-81
2024/01/19 04:45:35;;;;;;;10.30;5.60;;;;;;;4.56;95.36;94105.23;106687;1274;22546;-80
2024/01/19 04:48:03;;;;;;;6.80;4.40;;;;;;;4.58;95.27;94108.00;106717;1274;22529;-81
2024/01/19 04:50:32;;;;;;;4.40;2.20;;;;;;;4.63;95.61;94110.50;106710;1274;25307;-80
2024/01/19 04:53:00;;;;;;;7.40;4.20;;;;;;;4.68;95.91;94115.83;107019;1274;25012;-81
2024/01/19 04:55:28;;;;;;;2.60;1.90;;;;;;;4.63;94.92;94113.65;106970;1274;22545;-81
2024/01/19 04:57:57;;;;;;;1.50;1.20;;;;;;;4.51;94.51;94114.73;106635;1274;26743;-81
2024/01/19 05:00:25;;;;;;;1.60;1.20;;;;;;;4.49;95.02;94114.95;106749;1274;25369;-81
2024/01/19 05:02:53;;;;;;;3.20;1.50;;;;;;;4.51;95.40;94111.95;106680;1274;22612;-81
2024/01/19 05:05:22;;;;;;;4.50;2.50;;;;;;;4.56;95.65;94117.79;106708;1274;22665;-81
2024/01/19 05:07:50;;;;;;;3.30;1.80;;;;;;;4.54;95.40;94115.71;106706;1274;23879;-81
2024/01/19 05:10:18;;;;;;;2.00;1.30;;;;;;;4.49;95.20;94114.08;107000;1274;25422;-81
2024/01/19 05:12:46;;;;;;;1.70;1.00;;;;;;;4.51;95.75;94115.27;106905;1274;25450;-81
2024/01/19 05:15:14;;;;;;;1.90;1.50;;;;;;;4.49;95.32;94116.85;106734;1264;24252;-81
2024/01/19 05:17:43;;;;;;;6.90;4.50;;;;;;;4.44;95.04;94118.52;106697;1274;22601;-81
2024/01/19 05:20:11;;;;;;;9.80;6.60;;;;;;;4.41;95.11;94119.45;106696;1274;24286;-81
2024/01/19 05:22:39;;;;;;;8.20;5.40;;;;;;;4.38;95.06;94121.95;106951;1274;25515;-81
2024/01/19 05:25:08;;;;;;;7.80;5.20;;;;;;;4.28;94.74;94130.14;106658;1274;22523;-81
2024/01/19 05:27:36;;;;;;;16.90;10.80;;;;;;;4.24;94.96;94135.77;106902;1274;22517;-81
2024/01/19 05:30:05;;;;;;;14.70;10.20;;;;;;;4.26;95.38;94137.13;106696;1274;22625;-81
2024/01/19 05:32:34;;;;;;;16.90;12.50;;;;;;;4.27;95.36;94139.04;106756;1274;22636;-81
2024/01/19 05:35:03;;;;;;;21.60;15.60;;;;;;;4.27;95.60;94141.98;106839;1274;22887;-81
2024/01/19 05:37:31;;;;;;;11.90;7.10;;;;;;;4.27;95.70;94143.20;106973;1274;24221;-81
2024/01/19 05:40:00;;;;;;;11.80;7.00;;;;;;;4.23;95.43;94149.19;106747;1274;22520;-81
2024/01/19 05:42:28;;;;;;;5.40;3.40;;;;;;;4.23;95.43;94142.92;106732;1274;22527;-81
2024/01/19 05:44:56;;;;;;;5.60;4.60;;;;;;;4.26;95.52;94146.37;106666;1274;22780;-81
2024/01/19 05:47:24;;;;;;;45.60;25.50;;;;;;;4.24;95.72;94152.14;106679;1275;22546;-80
2024/01/19 05:49:53;;;;;;;67.30;35.20;;;;;;;4.26;96.51;94154.89;106970;1274;22550;-81
2024/01/19 05:52:21;;;;;;;64.10;33.60;;;;;;;4.32;96.85;94158.61;106684;1274;25240;-81
2024/01/19 05:54:49;;;;;;;47.80;25.70;;;;;;;4.36;96.69;94167.60;106632;1274;24242;-81
2024/01/19 05:57:17;;;;;;;23.40;13.90;;;;;;;4.36;96.45;94170.20;106770;1274;24092;-81
2024/01/19 05:59:46;;;;;;;24.30;15.80;;;;;;;4.34;96.14;94172.66;106689;1270;22526;-80
2024/01/19 06:02:14;;;;;;;33.60;20.60;;;;;;;4.42;96.79;94170.09;106718;1274;24382;-82
2024/01/19 06:04:43;;;;;;;42.80;26.60;;;;;;;4.52;97.31;94169.73;106914;1274;22537;-80
2024/01/19 06:07:11;;;;;;;14.10;10.10;;;;;;;4.59;97.32;94173.29;106694;1274;24255;-79
2024/01/19 06:09:39;;;;;;;7.50;5.50;;;;;;;4.69;98.77;94178.14;106847;1274;22517;-80
2024/01/19 06:12:08;;;;;;;2.70;2.40;;;;;;;4.78;99.20;94186.17;106908;1274;22530;-80
2024/01/19 06:14:37;;;;;;;2.70;2.30;;;;;;;4.82;98.73;94189.20;106853;1274;22613;-79
2024/01/19 06:17:05;;;;;;;2.00;1.40;;;;;;;4.84;98.41;94192.49;106945;1275;22571;-79
2024/01/19 06:19:33;;;;;;;0.70;0.70;;;;;;;4.82;97.91;94194.98;106917;1275;24270;-79
2024/01/19 06:22:02;;;;;;;1.00;0.90;;;;;;;4.80;97.59;94201.45;106739;1274;24295;-80
2024/01/19 06:24:34;;;;;;;0.80;0.80;;;;;;;4.79;97.34;94210.89;106808;1274;23885;-78
2024/01/19 06:27:03;;;;;;;2.30;1.30;;;;;;;4.79;97.36;94210.71;106831;1274;24916;-80
2024/01/19 06:29:32;;;;;;;2.60;2.00;;;;;;;4.75;96.97;94215.13;106792;1274;24223;-79
2024/01/19 06:32:00;;;;;;;3.20;1.50;;;;;;;4.71;96.67;94217.80;106810;1274;22677;-79
2024/01/19 06:34:29;;;;;;;7.90;3.00;;;;;;;4.66;96.48;94217.04;106790;1274;24376;-78
2024/01/19 06:36:57;;;;;;;11.20;6.00;;;;;;;4.62;96.44;94211.55;106826;1271;24407;-79
2024/01/19 06:39:25;;;;;;;5.00;2.90;;;;;;;4.60;96.44;94211.40;106715;1274;22553;-79
2024/01/19 06:41:54;;;;;;;3.60;2.10;;;;;;;4.58;96.37;94212.48;106932;1274;25527;-79
2024/01/19 06:44:22;;;;;;;1.10;0.50;;;;;;;4.57;96.37;94210.23;106903;1274;22628;-81
2024/01/19 06:46:50;;;;;;;0.80;0.70;;;;;;;4.56;96.26;94206.93;107150;1274;25422;-80
2024/01/19 06:49:18;;;;;;;2.20;1.10;;;;;;;4.52;95.87;94212.73;106912;1274;22534;-80
2024/01/19 06:51:47;;;;;;;0.80;0.70;;;;;;;4.48;95.67;94217.88;106897;1274;22546;-80
2024/01/19 06:54:15;;;;;;;0.80;0.60;;;;;;;4.44;95.51;94218.11;107142;1274;22555;-80
2024/01/19 06:56:43;;;;;;;1.20;0.90;;;;;;;4.39;95.31;94221.16;107015;1274;23292;-79
2024/01/19 06:59:12;;;;;;;0.90;0.60;;;;;;;4.34;95.26;94223.86;106771;1274;24393;-79
2024/01/19 07:01:40;;;;;;;1.20;0.90;;;;;;;4.28;95.34;94229.70;106655;1274;22547;-80
2024/01/19 07:04:08;;;;;;;4.40;1.80;;;;;;;4.25;95.19;94228.54;106768;1274;22526;-79
2024/01/19 07:06:37;;;;;;;3.30;2.30;;;;;;;4.19;95.21;94226.71;106826;1274;22719;-79
2024/01/19 07:09:06;;;;;;;5.10;3.00;;;;;;;4.16;95.34;94228.67;106746;1274;24237;-79
2024/01/19 07:11:37;;;;;;;2.20;1.60;;;;;;;4.10;95.12;94236.08;106689;1274;25284;-78
2024/01/19 07:14:05;;;;;;;3.80;2.60;;;;;;;3.96;94.47;94240.83;106859;1274;24229;-78
2024/01/19 07:16:38;;;;;;;7.10;4.20;;;;;;;3.83;94.09;94238.57;106863;1274;25293;-77
2024/01/19 07:19:07;;;;;;;;;;;;;;;3.75;94.35;94245.81;106909;1274;25351;-78
2024/01/19 07:21:39;;;;;;;11.30;5.80;;;;;;;3.67;94.57;94249.56;106925;1274;24382;-79
2024/01/19 07:24:09;;;;;;;11.30;5.50;;;;;;;3.62;94.40;94245.66;106711;1274;25598;-76
2024/01/19 07:26:38;;;;;;;8.30;4.10;;;;;;;3.53;93.81;94246.47;106801;1274;25463;-79
2024/01/19 07:29:09;;;;;;;5.30;2.90;;;;;;;3.40;93.68;94255.14;106779;1262;22560;-76
2024/01/19 07:31:37;;;;;;;6.40;3.90;;;;;;;3.32;93.76;94252.11;106717;1274;22544;-77
2024/01/19 07:34:05;;;;;;;4.20;2.20;;;;;;;3.25;93.72;94249.59;107052;1264;22527;-77
2024/01/19 07:36:34;;;;;;;5.20;2.70;;;;;;;3.19;93.60;94254.02;106842;1274;22669;-77
2024/01/19 07:39:03;;;;;;;3.70;2.30;;;;;;;3.12;93.29;94262.60;106880;1262;24260;-76
2024/01/19 07:41:32;;;;;;;2.30;1.70;;;;;;;3.04;93.15;94267.39;106820;1274;24479;-78
2024/01/19 07:44:00;;;;;;;1.60;1.00;;;;;;;2.99;93.06;94264.83;106814;1274;25385;-77
2024/01/19 07:46:28;;;;;;;3.10;1.90;;;;;;;2.92;92.75;94265.77;106718;1274;22782;-78
2024/01/19 07:48:56;;;;;;;2.40;1.70;;;;;;;2.89;93.14;94264.77;106802;1274;22676;-77
2024/01/19 07:51:26;;;;;;;1.60;1.00;;;;;;;2.86;93.03;94271.05;106706;1274;22537;-76
2024/01/19 07:53:55;;;;;;;1.50;1.00;;;;;;;2.76;92.66;94274.62;106850;1262;22523;-76
2024/01/19 07:56:23;;;;;;;1.50;1.00;;;;;;;2.69;92.42;94279.05;106862;1274;22636;-77
2024/01/19 07:58:51;;;;;;;2.10;1.50;;;;;;;2.64;92.61;94279.79;106663;1274;22638;-78
2024/01/19 08:01:20;;;;;;;1.80;1.20;;;;;;;2.62;92.88;94280.84;106683;1274;22531;-77
2024/01/19 08:03:48;;;;;;;1.40;1.00;;;;;;;2.61;92.97;94287.63;106749;1274;22822;-77
2024/01/19 08:06:16;;;;;;;0.50;0.50;;;;;;;2.56;92.83;94290.26;106655;1274;25223;-77
2024/01/19 08:08:44;;;;;;;1.40;0.80;;;;;;;2.53;92.45;94291.86;106660;1275;26072;-78
2024/01/19 08:11:13;;;;;;;2.30;1.10;;;;;;;2.51;92.54;94296.38;106950;1274;22519;-80
2024/01/19 08:13:41;;;;;;;5.80;1.80;;;;;;;2.48;92.49;94300.91;107026;1274;22582;-80
2024/01/19 08:16:09;;;;;;;4.60;1.70;;;;;;;2.47;92.32;94299.71;106916;1274;25356;-80
2024/01/19 08:18:37;;;;;;;2.90;1.80;;;;;;;2.43;91.83;94307.73;106930;1274;22943;-80
2024/01/19 08:21:06;;;;;;;1.70;1.30;;;;;;;2.40;91.71;94313.65;106898;1275;22521;-79
2024/01/19 08:23:34;;;;;;;1.90;1.20;;;;;;;2.37;91.43;94314.02;106886;1274;22530;-79
2024/01/19 08:26:06;;;;;;;1.70;0.90;;;;;;;2.30;90.85;94315.30;106847;1274;22567;-79
2024/01/19 08:28:34;;;;;;;3.20;2.70;;;;;;;2.20;90.72;94318.31;107099;1253;22816;-81
2024/01/19 08:31:03;;;;;;;1.90;1.20;;;;;;;2.17;91.17;94324.93;106930;1275;22748;-80
2024/01/19 08:33:31;;;;;;;1.00;0.90;;;;;;;2.18;91.48;94321.64;106790;1274;24478;-78
2024/01/19 08:36:01;;;;;;;1.50;0.90;;;;;;;2.18;91.30;94328.23;106807;1274;22642;-77
2024/01/19 08:38:29;;;;;;;1.30;1.20;;;;;;;2.18;91.00;94322.84;106878;1274;24284;-78
2024/01/19 08:40:58;;;;;;;1.10;0.90;;;;;;;2.12;90.64;94324.27;106684;1264;24241;-77
2024/01/19 08:43:26;;;;;;;1.50;0.90;;;;;;;2.10;90.87;94328.79;106769;1274;25425;-79
2024/01/19 08:45:54;;;;;;;1.20;0.80;;;;;;;2.09;90.87;94334.00;106709;1274;25262;-78
2024/01/19 08:48:23;;;;;;;1.10;0.70;;;;;;;2.04;90.56;94334.73;106843;1275;22633;-80
2024/01/19 08:50:52;;;;;;;3.30;1.10;;;;;;;1.99;90.58;94334.41;106814;1275;25525;-79
2024/01/19 08:53:20;;;;;;;2.40;1.40;;;;;;;1.98;91.11;94336.85;106714;1274;23762;-81
2024/01/19 08:55:48;;;;;;;1.30;0.80;;;;;;;1.98;90.75;94335.11;106895;1271;23406;-79
2024/01/19 08:58:16;;;;;;;1.50;0.90;;;;;;;1.94;90.33;94334.61;106930;1274;22513;-78
2024/01/19 09:00:45;;;;;;;2.10;0.70;;;;;;;1.84;90.10;94338.66;106864;1259;24274;-79
2024/01/19 09:03:13;;;;;;;2.10;1.00;;;;;;;1.82;90.27;94332.95;106647;1275;22504;-79
2024/01/19 09:05:41;;;;;;;1.30;1.00;;;;;;;1.80;90.60;94335.21;106770;1275;24206;-79
2024/01/19 09:08:10;;;;;;;2.50;1.10;;;;;;;1.79;90.83;94340.25;106739;1274;24249;-78
2024/01/19 09:10:38;;;;;;;1.80;1.20;;;;;;;1.69;90.80;94343.59;106867;1274;26116;-80
2024/01/19 09:13:06;;;;;;;1.40;0.90;;;;;;;1.64;90.50;94346.90;106723;1274;22542;-79
2024/01/19 09:15:34;;;;;;;2.20;1.50;;;;;;;1.62;90.53;94351.77;106671;1274;25420;-80
2024/01/19 09:18:03;;;;;;;4.10;3.20;;;;;;;1.58;90.62;94350.23;106902;1274;25591;-80
2024/01/19 09:20:31;;;;;;;2.40;1.80;;;;;;;1.57;90.78;94357.86;106881;1274;24212;-79
2024/01/19 09:22:59;;;;;;;3.00;1.80;;;;;;;1.55;90.94;94360.30;106914;1275;22869;-79
2024/01/19 09:25:27;;;;;;;2.10;1.30;;;;;;;1.53;90.96;94364.45;107046;1274;24222;-79
2024/01/19 09:27:57;;;;;;;4.50;1.40;;;;;;;1.49;90.82;94367.77;106808;1274;24404;-77
2024/01/19 09:30:25;;;;;;;2.40;1.10;;;;;;;1.47;90.50;94364.99;107112;1269;24368;-79
2024/01/19 09:32:54;;;;;;;3.60;1.40;;;;;;;1.46;90.48;94366.38;107112;1267;22575;-79
2024/01/19 09:35:23;;;;;;;2.20;1.30;;;;;;;1.42;90.20;94363.45;107217;1275;22802;-79
2024/01/19 09:37:52;;;;;;;3.90;2.10;;;;;;;1.39;90.56;94361.40;107223;1274;22521;-80
2024/01/19 09:40:21;;;;;;;2.60;1.50;;;;;;;1.37;90.48;94358.63;107061;1262;22565;-80
2024/01/19 09:42:54;;;;;;;4.50;1.60;;;;;;;1.35;90.34;94360.70;107102;1274;25239;-81
2024/01/19 09:45:26;;;;;;;2.90;1.80;;;;;;;1.35;90.14;94360.19;107135;1274;24281;-79
2024/01/19 09:48:00;;;;;;;2.50;1.60;;;;;;;1.38;90.41;94361.55;108213;1274;22549;-81
2024/01/19 09:50:37;;;;;;;3.00;1.40;;;;;;;1.35;90.00;94366.96;106900;1274;24765;-80
2024/01/19 09:53:23;;;;;;;2.30;1.80;;;;;;;1.33;89.86;94371.47;106899;1274;22527;-81
2024/01/19 09:55:51;;;;;;;2.50;1.60;;;;;;;1.32;90.13;94378.05;107204;1274;22654;-83
2024/01/19 09:58:21;;;;;;;2.30;1.70;;;;;;;1.33;89.89;94378.55;107240;1275;25284;-83
2024/01/19 10:00:51;;;;;;;4.10;2.60;;;;;;;1.32;89.84;94381.34;106847;1275;25373;-80
2024/01/19 10:03:22;;;;;;;3.80;2.30;;;;;;;1.32;89.93;94382.04;106833;1274;22523;-79
2024/01/19 10:05:52;;;;;;;3.40;2.00;;;;;;;1.33;89.83;94377.52;106763;1274;22689;-78
2024/01/19 10:08:22;;;;;;;2.90;1.80;;;;;;;1.24;89.03;94379.80;106728;1274;22537;-78
2024/01/19 10:10:52;;;;;;;4.80;2.80;;;;;;;1.23;89.39;94379.61;106680;1274;24252;-78
2024/01/19 10:13:20;;;;;;;3.30;2.30;;;;;;;1.20;89.87;94375.30;106874;1274;22542;-78
2024/01/19 10:15:49;;;;;;;3.60;2.10;;;;;;;1.18;89.60;94376.00;106800;1275;23048;-78
2024/01/19 10:18:18;;;;;;;5.10;3.30;;;;;;;1.13;89.53;94373.23;106686;1274;22700;-78
2024/01/19 10:20:48;;;;;;;8.50;4.80;;;;;;;1.11;89.85;94372.89;106686;1275;24944;-78
2024/01/19 10:23:21;;;;;;;12.10;7.10;;;;;;;1.07;89.89;94377.77;106857;1275;22523;-78
2024/01/19 10:25:50;;;;;;;;;;;;;;;1.05;89.92;94382.61;106729;1274;22516;-78
2024/01/19 10:28:37;;;;;;;4.20;2.40;;;;;;;1.04;90.05;94386.23;106717;1274;25239;-78
2024/01/19 10:31:26;;;;;;;5.10;3.20;;;;;;;1.00;89.80;94386.95;106675;1274;22642;-78
2024/01/19 10:33:58;;;;;;;5.50;3.00;;;;;;;0.94;89.98;94390.06;106668;1274;26545;-79
2024/01/19 10:36:37;;;;;;;2.60;2.40;;;;;;;0.91;89.97;94388.17;106728;1274;22654;-79
2024/01/19 10:39:23;;;;;;;3.30;2.00;;;;;;;0.87;90.12;94390.59;106650;1274;22521;-79
2024/01/19 10:42:03;;;;;;;3.00;1.60;;;;;;;0.82;89.88;94396.48;106681;1274;25355;-79
2024/01/19 10:44:33;;;;;;;2.70;1.80;;;;;;;0.73;89.86;94395.44;106747;1265;22520;-78
2024/01/19 10:47:01;;;;;;;4.30;2.50;;;;;;;0.65;89.95;94402.02;106650;1274;24222;-78
2024/01/19 10:49:32;;;;;;;3.00;2.00;;;;;;;0.62;90.06;94402.71;106693;1275;22530;-78
2024/01/19 10:52:01;;;;;;;2.40;1.70;;;;;;;0.61;90.18;94405.30;106736;1274;22517;-77
2024/01/19 10:54:29;;;;;;;1.50;1.30;;;;;;;0.62;90.06;94404.27;106248;1275;576056;-78
2024/01/19 10:57:15;;;;;;;1.40;1.10;;;;;;;0.60;89.93;94402.54;106669;1275;22579;-78
2024/01/19 10:59:43;;;;;;;1.60;1.20;;;;;;;0.58;89.54;94407.73;106645;1274;22524;-78
2024/01/19 11:02:12;;;;;;;1.90;1.10;;;;;;;0.58;89.77;94405.82;106627;1274;22604;-78
2024/01/19 11:04:40;;;;;;;2.50;1.50;;;;;;;0.51;89.69;94409.80;106720;1274;22635;-78
2024/01/19 11:07:08;;;;;;;1.90;1.20;;;;;;;0.53;90.00;94408.08;106696;1275;22631;-78
2024/01/19 11:09:37;;;;;;;2.10;1.50;;;;;;;0.55;89.78;94406.69;106652;1274;24328;-79
2024/01/19 11:12:09;;;;;;;3.60;1.90;;;;;;;0.60;89.90;94409.64;106687;1274;22648;-78
2024/01/19 11:14:38;;;;;;;2.90;1.40;;;;;;;0.62;89.46;94405.31;106690;1274;23886;-78
2024/01/19 11:17:06;;;;;;;2.10;1.30;;;;;;;0.62;89.29;94409.80;106694;1275;24210;-78
2024/01/19 11:19:35;;;;;;;1.80;1.50;;;;;;;0.61;89.28;94413.10;106686;1274;22530;-79
2024/01/19 11:22:05;;;;;;;2.30;1.00;;;;;;;0.60;89.52;94409.11;106705;1274;25297;-78
2024/01/19 11:24:37;;;;;;;2.70;2.00;;;;;;;0.60;89.74;94412.92;106676;1275;25357;-79
2024/01/19 11:27:27;;;;;;;2.70;1.80;;;;;;;0.62;89.51;94423.83;106770;1275;25422;-77
2024/01/19 11:30:14;;;;;;;1.90;1.20;;;;;;;0.59;89.50;94425.90;106631;1275;23610;-77
2024/01/19 11:32:42;;;;;;;1.20;1.10;;;;;;;0.55;89.44;94428.48;106725;1274;22581;-77
2024/01/19 11:35:13;;;;;;;1.40;1.10;;;;;;;0.54;89.65;94438.36;106636;1275;24341;-78
2024/01/19 11:37:46;;;;;;;1.50;0.90;;;;;;;0.46;88.72;94438.16;106782;1275;25373;-78
2024/01/19 11:40:24;;;;;;;1.60;0.90;;;;;;;0.38;88.68;94438.16;106721;1274;25432;-78